createdAt,value
2022-08-02T00:00:09.810Z,40.04
2022-08-02T00:02:36.862Z,39.88
2022-08-02T00:05:04.600Z,38.93
2022-08-02T00:07:31.283Z,39.56
2022-08-02T00:09:57.989Z,39.46
2022-08-02T00:12:25.038Z,39.72
2022-08-02T00:14:52.254Z,40.14
2022-08-02T00:17:19.127Z,40.05
2022-08-02T00:19:46.330Z,39.90
2022-08-02T00:22:13.507Z,39.75
2022-08-02T00:24:40.707Z,40.08
2022-08-02T00:27:10.499Z,40.13
2022-08-02T00:29:52.153Z,40.18
2022-08-02T00:32:22.940Z,40.30
2022-08-02T00:34:50.606Z,40.46
2022-08-02T00:37:17.360Z,39.81
2022-08-02T00:39:44.272Z,40.56
2022-08-02T00:42:14.230Z,40.15
2022-08-02T00:44:41.275Z,40.61
2022-08-02T00:47:07.987Z,41.17
2022-08-02T00:49:34.773Z,40.89
2022-08-02T00:52:02.065Z,40.85
2022-08-02T00:54:28.839Z,40.99
2022-08-02T00:56:55.604Z,40.97
2022-08-02T00:59:22.557Z,40.10
2022-08-02T01:01:55.968Z,40.82
2022-08-02T01:04:26.810Z,40.87
2022-08-02T01:07:00.437Z,40.55
2022-08-02T01:09:27.840Z,40.66
2022-08-02T01:11:54.925Z,40.85
2022-08-02T01:14:24.599Z,41.12
2022-08-02T01:17:06.571Z,41.14
2022-08-02T01:19:43.325Z,41.03
2022-08-02T01:22:34.676Z,40.86
2022-08-02T01:25:12.730Z,41.26
2022-08-02T01:27:57.861Z,41.44
2022-08-02T01:30:25.804Z,41.37
2022-08-02T01:32:58.284Z,41.40
2022-08-02T01:35:50.999Z,41.17
2022-08-02T01:38:29.364Z,40.81
2022-08-02T01:40:58.650Z,40.96
2022-08-02T01:43:26.607Z,41.14
2022-08-02T01:45:54.360Z,41.59
2022-08-02T01:48:23.261Z,42.14
2022-08-02T01:50:52.048Z,42.33
2022-08-02T01:53:21.752Z,41.99
2022-08-02T01:55:58.121Z,41.07
2022-08-02T01:58:29.956Z,41.52
2022-08-02T02:00:58.288Z,42.37
2022-08-02T02:03:27.089Z,41.92
2022-08-02T02:05:57.455Z,41.14
2022-08-02T02:08:29.084Z,41.42
2022-08-02T02:10:57.652Z,41.48
2022-08-02T02:13:45.328Z,41.04
2022-08-02T02:16:14.089Z,42.24
2022-08-02T02:18:43.902Z,40.49
2022-08-02T02:21:13.235Z,41.22
2022-08-02T02:23:40.758Z,41.49
2022-08-02T02:26:11.586Z,41.82
2022-08-02T02:28:40.299Z,42.04
2022-08-02T02:31:12.160Z,42.24
2022-08-02T02:33:50.397Z,42.38
2022-08-02T02:36:19.046Z,42.26
2022-08-02T02:38:47.946Z,42.66
2022-08-02T02:41:17.554Z,44.68
2022-08-02T02:43:45.892Z,43.62
2022-08-02T02:46:13.337Z,43.39
2022-08-02T02:48:40.645Z,42.44
2022-08-02T02:51:13.689Z,42.31
2022-08-02T02:54:33.269Z,42.12
2022-08-02T02:56:30.379Z,42.07
2022-08-02T02:58:57.605Z,42.25
2022-08-02T03:01:55.078Z,42.52
2022-08-02T03:04:22.033Z,42.08
2022-08-02T03:06:48.891Z,43.51
2022-08-02T03:09:15.675Z,43.26
2022-08-02T03:11:43.147Z,43.20
2022-08-02T03:14:11.830Z,43.55
2022-08-02T03:16:56.826Z,43.65
2022-08-02T03:19:23.916Z,43.80
2022-08-02T03:22:00.153Z,44.02
2022-08-02T03:24:28.114Z,43.23
2022-08-02T03:26:55.880Z,43.60
2022-08-02T03:29:22.783Z,43.80
2022-08-02T03:31:50.103Z,43.65
2022-08-02T03:34:17.230Z,44.10
2022-08-02T03:36:50.477Z,43.70
2022-08-02T03:39:19.939Z,43.09
2022-08-02T03:41:48.519Z,43.40
2022-08-02T03:44:16.152Z,43.60
2022-08-02T03:46:44.391Z,43.82
2022-08-02T03:49:11.571Z,43.72
2022-08-02T03:51:39.140Z,43.45
2022-08-02T03:54:06.538Z,43.76
2022-08-02T03:56:34.702Z,44.00
2022-08-02T03:59:13.099Z,44.94
2022-08-02T04:01:40.516Z,44.52
2022-08-02T04:04:08.302Z,44.62
2022-08-02T04:06:35.127Z,44.22
2022-08-02T04:09:07.288Z,44.52
2022-08-02T04:11:34.145Z,43.47
2022-08-02T04:14:04.900Z,43.60
2022-08-02T04:16:40.990Z,43.12
2022-08-02T04:19:14.923Z,43.85
2022-08-02T04:21:51.186Z,43.39
2022-08-02T04:24:25.277Z,42.03
2022-08-02T04:26:58.151Z,41.63
2022-08-02T04:29:35.124Z,41.35
2022-08-02T04:32:05.492Z,41.62
2022-08-02T04:34:32.297Z,42.04
2022-08-02T04:37:00.154Z,41.55
2022-08-02T04:39:27.988Z,41.08
2022-08-02T04:41:57.786Z,40.86
2022-08-02T04:44:25.316Z,41.04
2022-08-02T04:46:52.827Z,41.71
2022-08-02T04:49:22.747Z,40.55
2022-08-02T04:51:49.618Z,40.28
2022-08-02T04:54:16.667Z,39.89
2022-08-02T04:56:45.726Z,39.46
2022-08-02T04:59:12.793Z,39.65
2022-08-02T05:01:42.328Z,40.53
2022-08-02T05:04:09.201Z,40.22
2022-08-02T05:06:36.085Z,40.08
2022-08-02T05:09:03.156Z,40.25
2022-08-02T05:11:36.494Z,40.28
2022-08-02T05:14:05.294Z,41.41
2022-08-02T05:16:32.616Z,40.81
2022-08-02T05:19:01.203Z,40.34
2022-08-02T05:21:29.309Z,41.46
2022-08-02T05:23:56.108Z,41.50
2022-08-02T05:26:22.863Z,40.90
2022-08-02T05:28:49.860Z,39.90
2022-08-02T05:31:16.718Z,40.24
2022-08-02T05:33:43.494Z,40.31
2022-08-02T05:36:10.348Z,39.69
2022-08-02T05:38:37.882Z,40.12
2022-08-02T05:41:05.721Z,41.19
2022-08-02T05:43:32.830Z,41.09
2022-08-02T05:46:00.264Z,43.06
2022-08-02T05:48:31.638Z,41.54
2022-08-02T05:51:17.104Z,42.88
2022-08-02T05:54:01.360Z,41.69
2022-08-02T05:56:56.150Z,42.20
2022-08-02T05:59:44.473Z,42.48
2022-08-02T06:02:30.869Z,41.43
2022-08-02T06:05:21.128Z,41.35
2022-08-02T06:07:50.051Z,42.11
2022-08-02T06:10:20.708Z,40.14
2022-08-02T06:12:56.438Z,39.84
2022-08-02T06:15:23.205Z,41.41
2022-08-02T06:17:50.643Z,41.38
2022-08-02T06:20:20.170Z,39.49
2022-08-02T06:22:47.425Z,38.81
2022-08-02T06:25:50.997Z,39.90
2022-08-02T06:28:03.875Z,39.74
2022-08-02T06:30:37.156Z,40.64
2022-08-02T06:33:03.879Z,40.98
2022-08-02T06:36:03.184Z,37.79
2022-08-02T06:38:34.171Z,37.53
2022-08-02T06:41:12.083Z,36.00
2022-08-02T06:43:54.735Z,35.88
2022-08-02T06:47:10.203Z,35.62
2022-08-02T06:49:09.083Z,35.79
2022-08-02T06:51:36.062Z,35.46
2022-08-02T06:54:02.892Z,35.11
2022-08-02T06:56:29.740Z,34.82
2022-08-02T06:58:56.459Z,34.90
2022-08-02T07:01:23.591Z,34.00
2022-08-02T07:03:50.507Z,33.46
2022-08-02T07:06:17.384Z,33.07
2022-08-02T07:08:59.428Z,33.77
2022-08-02T07:11:31.036Z,34.07
2022-08-02T07:13:57.815Z,33.30
2022-08-02T07:16:24.645Z,33.93
2022-08-02T07:18:51.374Z,33.88
2022-08-02T07:21:18.271Z,32.96
2022-08-02T07:24:05.210Z,32.86
2022-08-02T07:26:31.988Z,31.96
2022-08-02T07:28:58.722Z,33.09
2022-08-02T07:31:25.457Z,33.03
2022-08-02T07:33:52.897Z,31.47
2022-08-02T07:36:22.506Z,31.89
2022-08-02T07:38:50.531Z,32.39
2022-08-02T07:41:17.364Z,32.17
2022-08-02T07:43:44.105Z,31.58
2022-08-02T07:46:10.808Z,31.57
2022-08-02T07:48:37.604Z,31.81
2022-08-02T07:51:04.392Z,32.05
2022-08-02T07:53:51.500Z,32.16
2022-08-02T07:56:17.964Z,31.91
2022-08-02T07:58:44.775Z,30.68
2022-08-02T08:01:11.605Z,30.61
2022-08-02T08:03:38.394Z,31.48
2022-08-02T08:06:05.353Z,30.19
2022-08-02T08:08:32.095Z,30.40
2022-08-02T08:10:58.880Z,31.79
2022-08-02T08:13:25.672Z,30.58
2022-08-02T08:15:52.793Z,29.75
2022-08-02T08:18:21.499Z,30.64
2022-08-02T08:20:48.727Z,32.78
2022-08-02T08:23:15.435Z,30.77
2022-08-02T08:25:43.160Z,30.26
2022-08-02T08:28:10.019Z,32.78
2022-08-02T08:30:36.739Z,30.24
2022-08-02T08:33:04.495Z,31.26
2022-08-02T08:35:31.377Z,31.18
2022-08-02T08:37:58.202Z,29.47
2022-08-02T08:40:25.596Z,30.65
2022-08-02T08:42:52.935Z,31.35
2022-08-02T08:45:19.680Z,29.85
2022-08-02T08:47:55.170Z,30.16
2022-08-02T08:50:25.900Z,31.54
2022-08-02T08:53:12.383Z,30.37
2022-08-02T08:55:41.077Z,30.89
2022-08-02T08:58:07.830Z,29.84
2022-08-02T09:00:35.922Z,30.01
2022-08-02T09:03:06.737Z,29.77
2022-08-02T09:05:38.432Z,30.40
2022-08-02T09:08:06.413Z,29.34
2022-08-02T09:10:46.452Z,29.18
2022-08-02T09:13:31.190Z,29.74
2022-08-02T09:16:12.792Z,29.44
2022-08-02T09:18:46.718Z,29.29
2022-08-02T09:21:15.931Z,28.86
2022-08-02T09:23:46.263Z,28.86
2022-08-02T09:26:15.721Z,29.38
2022-08-02T09:28:46.623Z,28.36
2022-08-02T09:31:18.952Z,30.12
2022-08-02T09:33:58.099Z,27.68
2022-08-02T09:36:25.796Z,27.82
2022-08-02T09:39:00.144Z,29.46
2022-08-02T09:41:35.296Z,29.68
2022-08-02T09:44:06.456Z,28.36
2022-08-02T09:46:39.306Z,28.34
2022-08-02T09:49:17.417Z,28.85
2022-08-02T09:51:47.203Z,28.49
2022-08-02T09:54:27.715Z,28.06
2022-08-02T09:56:57.641Z,28.59
2022-08-02T09:59:26.016Z,28.14
2022-08-02T10:02:01.742Z,28.63
2022-08-02T10:04:33.798Z,27.90
2022-08-02T10:07:04.406Z,27.43
2022-08-02T10:09:31.994Z,28.83
2022-08-02T10:12:00.211Z,27.29
2022-08-02T10:14:27.876Z,27.21
2022-08-02T10:16:57.429Z,26.91
2022-08-02T10:20:03.207Z,26.75
2022-08-02T10:22:14.315Z,28.78
2022-08-02T10:24:47.985Z,28.16
2022-08-02T10:27:21.276Z,28.33
2022-08-02T10:29:54.051Z,27.87
2022-08-02T10:32:33.259Z,27.46
2022-08-02T10:35:19.670Z,26.25
2022-08-02T10:38:01.203Z,26.96
2022-08-02T10:40:52.541Z,27.32
2022-08-02T10:43:31.568Z,27.80
2022-08-02T10:46:35.733Z,28.34
2022-08-02T10:52:02.659Z,27.71
2022-08-02T10:54:36.700Z,27.15
2022-08-02T10:57:15.290Z,27.51
2022-08-02T10:59:42.638Z,26.42
2022-08-02T11:02:09.784Z,27.89
2022-08-02T11:04:36.546Z,27.15
2022-08-02T11:07:18.292Z,26.94
2022-08-02T11:09:50.371Z,26.64
2022-08-02T11:12:19.715Z,25.74
2022-08-02T11:15:03.872Z,26.18
2022-08-02T11:17:55.159Z,26.54
2022-08-02T11:20:23.895Z,25.95
2022-08-02T11:22:53.250Z,25.78
2022-08-02T11:25:22.723Z,24.66
2022-08-02T11:27:49.664Z,25.42
2022-08-02T11:30:17.253Z,25.15
2022-08-02T11:32:44.133Z,24.89
2022-08-02T11:35:11.157Z,24.65
2022-08-02T11:37:40.121Z,25.96
2022-08-02T11:40:19.635Z,25.66
2022-08-02T11:42:51.326Z,26.16
2022-08-02T11:45:21.448Z,25.85
2022-08-02T11:47:54.387Z,25.35
2022-08-02T11:50:29.936Z,25.57
2022-08-02T11:52:57.800Z,25.76
2022-08-02T11:55:32.155Z,24.71
2022-08-02T11:58:04.492Z,25.10
2022-08-02T12:00:32.457Z,24.82
2022-08-02T12:02:59.481Z,24.55
2022-08-02T12:08:19.090Z,25.70
2022-08-02T12:10:50.335Z,25.22
2022-08-02T12:13:17.181Z,25.32
2022-08-02T12:15:45.585Z,23.27
2022-08-02T12:18:33.593Z,24.10
2022-08-02T12:21:00.475Z,23.67
2022-08-02T12:23:28.023Z,24.61
2022-08-02T12:26:01.508Z,23.84
2022-08-02T12:28:28.432Z,24.08
2022-08-02T12:31:00.409Z,24.51
2022-08-02T12:33:29.969Z,24.70
2022-08-02T12:35:57.157Z,25.15
2022-08-02T12:38:23.971Z,24.73
2022-08-02T12:40:50.722Z,24.62
2022-08-02T12:43:20.774Z,24.48
2022-08-02T12:45:53.386Z,25.12
2022-08-02T12:48:56.639Z,25.23
2022-08-02T12:51:56.734Z,24.47
2022-08-02T12:54:20.939Z,24.21
2022-08-02T12:56:58.529Z,24.41
2022-08-02T12:59:39.049Z,24.10
2022-08-02T13:02:14.635Z,24.48
2022-08-02T13:04:49.649Z,24.63
2022-08-02T13:07:18.566Z,24.50
2022-08-02T13:09:46.875Z,24.39
2022-08-02T13:12:14.319Z,25.24
2022-08-02T13:14:42.647Z,26.00
2022-08-02T13:17:13.741Z,25.52
2022-08-02T13:19:42.276Z,25.26
2022-08-02T13:22:11.434Z,25.04
2022-08-02T13:24:55.299Z,25.31
2022-08-02T13:27:24.323Z,24.87
2022-08-02T13:29:52.106Z,26.10
2022-08-02T13:32:19.592Z,23.33
2022-08-02T13:34:46.894Z,23.55
2022-08-02T13:37:14.339Z,22.65
2022-08-02T13:39:41.288Z,23.46
2022-08-02T13:42:08.275Z,22.89
2022-08-02T13:44:43.429Z,23.08
2022-08-02T13:47:11.475Z,23.20
2022-08-02T13:49:50.583Z,22.72
2022-08-02T13:52:19.800Z,22.80
2022-08-02T13:54:46.614Z,22.72
2022-08-02T13:57:13.281Z,22.39
2022-08-02T13:59:56.570Z,22.99
2022-08-02T14:02:28.405Z,22.67
2022-08-02T14:04:55.524Z,22.78
2022-08-02T14:07:22.534Z,23.11
2022-08-02T14:09:50.451Z,22.46
2022-08-02T14:12:17.396Z,22.88
2022-08-02T14:14:44.353Z,22.29
2022-08-02T14:17:11.798Z,23.01
2022-08-02T14:19:38.528Z,22.90
2022-08-02T14:22:11.448Z,22.88
2022-08-02T14:24:40.194Z,22.45
2022-08-02T14:27:07.112Z,21.96
2022-08-02T14:29:34.009Z,22.09
2022-08-02T14:32:00.936Z,21.30
2022-08-02T14:34:28.144Z,20.82
2022-08-02T14:36:56.643Z,21.76
2022-08-02T14:39:23.486Z,22.87
2022-08-02T14:41:59.666Z,23.49
2022-08-02T14:44:28.840Z,22.71
2022-08-02T14:46:55.978Z,22.74
2022-08-02T14:49:25.546Z,22.42
2022-08-02T14:51:53.811Z,22.68
2022-08-02T14:54:20.879Z,22.67
2022-08-02T14:56:56.903Z,21.95
2022-08-02T14:59:23.809Z,22.69
2022-08-02T15:01:50.831Z,21.56
2022-08-02T15:04:18.288Z,22.55
2022-08-02T15:06:45.154Z,21.78
2022-08-02T15:09:13.581Z,22.33
2022-08-02T15:11:46.929Z,23.32
2022-08-02T15:14:25.789Z,22.85
2022-08-02T15:16:58.404Z,22.25
2022-08-02T15:19:56.142Z,20.87
2022-08-02T15:22:19.205Z,21.71
2022-08-02T15:24:47.782Z,21.78
2022-08-02T15:27:15.626Z,22.03
2022-08-02T15:29:46.747Z,23.03
2022-08-02T15:32:17.465Z,23.75
2022-08-02T15:34:44.826Z,23.92
2022-08-02T15:37:11.942Z,22.44
2022-08-02T15:39:38.683Z,23.41
2022-08-02T15:42:05.512Z,23.50
2022-08-02T15:44:32.362Z,24.42
2022-08-02T15:46:59.161Z,24.12
2022-08-02T15:49:26.184Z,24.73
2022-08-02T15:51:53.984Z,25.70
2022-08-02T15:54:20.967Z,24.45
2022-08-02T15:56:47.894Z,24.51
2022-08-02T15:59:15.101Z,22.94
2022-08-02T16:01:46.653Z,23.09
2022-08-02T16:04:14.506Z,22.78
2022-08-02T16:06:41.311Z,23.46
2022-08-02T16:09:10.267Z,23.63
2022-08-02T16:11:37.169Z,23.39
2022-08-02T16:14:04.146Z,23.14
2022-08-02T16:16:34.163Z,23.27
2022-08-02T16:19:47.734Z,24.21
2022-08-02T16:21:50.384Z,23.78
2022-08-02T16:24:17.470Z,23.38
2022-08-02T16:26:44.508Z,23.95
2022-08-02T16:29:11.631Z,23.56
2022-08-02T16:31:42.509Z,23.86
2022-08-02T16:34:10.105Z,23.69
2022-08-02T16:36:37.795Z,24.09
2022-08-02T16:39:05.400Z,25.17
2022-08-02T16:41:51.337Z,24.52
2022-08-02T16:44:29.221Z,24.72
2022-08-02T16:47:00.964Z,25.44
2022-08-02T16:50:04.632Z,25.82
2022-08-02T16:52:18.785Z,25.78
2022-08-02T16:54:49.292Z,26.79
2022-08-02T16:57:19.560Z,26.30
2022-08-02T16:59:58.207Z,26.47
2022-08-02T17:02:26.630Z,26.90
2022-08-02T17:04:54.818Z,26.29
2022-08-02T17:08:07.566Z,26.48
2022-08-02T17:10:09.921Z,27.25
2022-08-02T17:12:38.053Z,26.88
2022-08-02T17:16:16.540Z,27.36
2022-08-02T17:17:53.808Z,27.23
2022-08-02T17:20:20.825Z,26.90
2022-08-02T17:22:47.751Z,27.24
2022-08-02T17:25:17.393Z,26.39
2022-08-02T17:27:45.265Z,26.63
2022-08-02T17:30:13.549Z,27.77
2022-08-02T17:32:45.661Z,26.79
2022-08-02T17:35:15.656Z,26.51
2022-08-02T17:37:54.519Z,27.02
2022-08-02T17:40:26.921Z,27.97
2022-08-02T17:42:53.656Z,28.06
2022-08-02T17:45:25.694Z,28.11
2022-08-02T17:48:04.304Z,28.06
2022-08-02T17:50:34.115Z,28.88
2022-08-02T17:53:01.787Z,29.87
2022-08-02T17:55:31.263Z,28.82
2022-08-02T17:57:59.715Z,29.23
2022-08-02T18:00:37.634Z,29.73
2022-08-02T18:03:07.883Z,29.25
2022-08-02T18:05:40.148Z,29.45
2022-08-02T18:08:23.285Z,30.17
2022-08-02T18:10:54.395Z,30.27
2022-08-02T18:13:21.718Z,30.78
2022-08-02T18:15:52.407Z,31.31
2022-08-02T18:18:29.880Z,30.64
2022-08-02T18:20:58.717Z,30.29
2022-08-02T18:23:44.222Z,31.55
2022-08-02T18:26:17.815Z,31.12
2022-08-02T18:28:47.681Z,30.58
2022-08-02T18:31:22.774Z,31.71
2022-08-02T18:34:00.206Z,30.01
2022-08-02T18:36:29.723Z,28.98
2022-08-02T18:38:57.201Z,29.23
2022-08-02T18:44:15.747Z,30.46
2022-08-02T18:46:44.295Z,30.76
2022-08-02T18:49:15.221Z,30.82
2022-08-02T18:51:43.957Z,29.77
2022-08-02T18:54:10.874Z,30.53
2022-08-02T18:56:39.073Z,29.98
2022-08-02T18:59:07.657Z,31.14
2022-08-02T19:01:39.492Z,32.00
2022-08-02T19:04:15.570Z,31.82
2022-08-02T19:06:54.131Z,31.66
2022-08-02T19:09:21.074Z,31.69
2022-08-02T19:11:48.384Z,31.73
2022-08-02T19:14:27.213Z,31.95
2022-08-02T19:17:16.139Z,32.80
2022-08-02T19:19:55.196Z,32.73
2022-08-02T19:22:22.912Z,33.44
2022-08-02T19:24:56.430Z,32.99
2022-08-02T19:27:32.098Z,34.26
2022-08-02T19:30:05.112Z,34.07
2022-08-02T19:32:40.742Z,33.87
2022-08-02T19:35:19.838Z,33.05
2022-08-02T19:38:04.967Z,33.69
2022-08-02T19:40:31.814Z,33.27
2022-08-02T19:44:20.868Z,33.76
2022-08-02T19:45:51.183Z,33.21
2022-08-02T19:48:33.263Z,32.98
2022-08-02T19:51:00.774Z,33.00
2022-08-02T19:53:48.299Z,32.36
2022-08-02T19:56:25.527Z,32.42
2022-08-02T19:58:54.621Z,33.59
2022-08-02T20:01:28.193Z,33.29
2022-08-02T20:04:06.270Z,32.51
2022-08-02T20:06:33.084Z,32.83
2022-08-02T20:09:01.264Z,32.78
2022-08-02T20:11:34.594Z,32.82
2022-08-02T20:14:04.207Z,33.48
2022-08-02T20:16:33.055Z,33.92
2022-08-02T20:19:00.999Z,34.32
2022-08-02T20:21:35.942Z,34.76
2022-08-02T20:24:09.258Z,34.98
2022-08-02T20:26:39.692Z,34.91
2022-08-02T20:29:15.182Z,34.59
2022-08-02T20:31:44.702Z,34.75
2022-08-02T20:34:11.453Z,34.04
2022-08-02T20:36:41.636Z,33.64
2022-08-02T20:39:08.383Z,34.24
2022-08-02T20:41:45.741Z,34.62
2022-08-02T20:44:15.474Z,34.07
2022-08-02T20:46:57.076Z,33.91
2022-08-02T20:49:41.194Z,33.79
2022-08-02T20:52:23.679Z,34.31
2022-08-02T20:54:51.731Z,34.01
2022-08-02T20:57:18.686Z,34.62
2022-08-02T20:59:45.374Z,34.24
2022-08-02T21:02:19.629Z,34.30
2022-08-02T21:04:46.919Z,34.43
2022-08-02T21:07:17.879Z,34.33
2022-08-02T21:09:53.658Z,35.08
2022-08-02T21:12:22.027Z,35.38
2022-08-02T21:14:57.113Z,35.58
2022-08-02T21:17:27.654Z,34.95
2022-08-02T21:20:08.810Z,36.54
2022-08-02T21:22:36.193Z,35.99
2022-08-02T21:25:03.045Z,36.28
2022-08-02T21:27:53.339Z,36.33
2022-08-02T21:30:24.274Z,36.92
2022-08-02T21:32:54.636Z,35.91
2022-08-02T21:35:24.762Z,35.95
2022-08-02T21:37:58.071Z,36.93
2022-08-02T21:40:25.283Z,37.96
2022-08-02T21:42:54.004Z,37.63
2022-08-02T21:45:20.708Z,37.07
2022-08-02T21:47:48.466Z,36.99
2022-08-02T21:50:16.238Z,36.88
2022-08-02T21:52:52.190Z,37.61
2022-08-02T21:55:23.938Z,37.77
2022-08-02T21:57:51.168Z,37.90
2022-08-02T22:00:28.490Z,37.15
2022-08-02T22:02:55.530Z,37.09
2022-08-02T22:05:22.422Z,37.73
2022-08-02T22:07:50.534Z,38.28
2022-08-02T22:10:17.799Z,38.36
2022-08-02T22:12:44.903Z,38.79
2022-08-02T22:15:12.020Z,39.00
2022-08-02T22:17:51.597Z,38.36
2022-08-02T22:20:21.193Z,39.10
2022-08-02T22:22:52.554Z,38.97
2022-08-02T22:25:27.318Z,39.43
2022-08-02T22:28:37.472Z,38.95
2022-08-02T22:30:58.087Z,38.88
2022-08-02T22:34:00.493Z,39.73
2022-08-02T22:36:30.860Z,39.29
2022-08-02T22:38:58.023Z,38.42
2022-08-02T22:41:24.855Z,38.43
2022-08-02T22:43:51.651Z,38.72
2022-08-02T22:46:18.579Z,39.13
2022-08-02T22:48:45.747Z,39.52
2022-08-02T22:51:13.481Z,38.72
2022-08-02T22:53:41.749Z,39.89
2022-08-02T22:56:09.596Z,39.48
2022-08-02T22:59:00.205Z,29.53
2022-08-02T22:59:07.836Z,40.70
2022-08-02T23:01:23.287Z,41.60
2022-08-02T23:03:50.135Z,41.31
2022-08-02T23:06:19.184Z,41.12
2022-08-02T23:08:50.166Z,40.73
2022-08-02T23:11:16.971Z,40.97
2022-08-02T23:13:43.985Z,40.77
2022-08-02T23:16:29.252Z,40.40
2022-08-02T23:19:25.400Z,41.36
2022-08-02T23:22:01.449Z,41.87
2022-08-02T23:24:30.530Z,40.84
2022-08-02T23:26:57.336Z,41.42
2022-08-02T23:29:24.174Z,40.91
2022-08-02T23:31:50.886Z,40.55
2022-08-02T23:34:17.763Z,41.28
2022-08-02T23:36:44.473Z,40.66
2022-08-02T23:39:11.271Z,40.19
2022-08-02T23:41:38.279Z,40.70
2022-08-02T23:44:14.225Z,40.21
2022-08-02T23:46:45.940Z,40.04
2022-08-02T23:49:14.437Z,40.94
2022-08-02T23:51:41.473Z,39.99
2022-08-02T23:54:08.816Z,40.19
2022-08-02T23:56:36.969Z,40.54
2022-08-02T23:59:03.878Z,41.04
